Time;durP1;ratioP1;P1;durP2;ratioP2;P2;SDS_P1;SDS_P2;PMS_P1;PMS_P2;Temp;Humidity;BMP_temperature;BMP_pressure;BME280_temperature;BME280_humidity;BME280_pressure;Samples;Min_cycle;Max_cycle;Signal;HPM_P1;HPM_P2
2023/03/22 00:02:06;;;;;;;12.35;9.98;;;9.90;99.90;;;;;;5053921;28;20120;-52
2023/03/22 00:04:32;;;;;;;13.98;9.65;;;9.80;99.90;;;;;;5071988;28;20041;-53
2023/03/22 00:06:57;;;;;;;12.20;10.77;;;9.90;99.90;;;;;;5072380;28;20447;-52
2023/03/22 00:09:23;;;;;;;16.02;10.00;;;9.80;99.90;;;;;;5072604;28;20055;-49
2023/03/22 00:11:49;;;;;;;13.52;10.30;;;9.90;99.90;;;;;;5072306;28;20396;-57
2023/03/22 00:14:16;;;;;;;11.18;9.55;;;9.90;99.90;;;;;;5090139;28;20069;-50
2023/03/22 00:16:42;;;;;;;15.55;9.30;;;9.80;99.90;;;;;;5092330;28;20020;-55
2023/03/22 00:19:07;;;;;;;13.70;9.68;;;9.90;99.90;;;;;;5092580;28;20032;-52
2023/03/22 00:21:33;;;;;;;11.90;9.60;;;9.90;99.90;;;;;;5073841;28;20028;-53
2023/03/22 00:23:58;;;;;;;12.90;10.35;;;9.90;99.90;;;;;;5093161;28;20032;-51
2023/03/22 00:26:24;;;;;;;14.32;10.57;;;9.90;99.90;;;;;;5092859;28;20059;-51
2023/03/22 00:28:50;;;;;;;14.38;9.52;;;10.00;99.90;;;;;;5092122;28;20040;-50
2023/03/22 00:31:16;;;;;;;11.45;9.65;;;10.00;99.90;;;;;;5073563;28;20024;-51
2023/03/22 00:33:41;;;;;;;16.38;10.45;;;10.10;99.90;;;;;;5092335;28;20020;-55
2023/03/22 00:36:09;;;;;;;15.32;10.05;;;10.20;99.90;;;;;;5092870;28;20066;-51
2023/03/22 00:38:38;;;;;;;19.73;11.43;;;10.20;99.90;;;;;;5092354;28;20497;-54
2023/03/22 00:41:09;;;;;;;16.20;11.75;;;10.20;99.90;;;;;;5092138;28;20127;-54
2023/03/22 00:43:35;;;;;;;16.77;11.05;;;10.20;99.90;;;;;;5092283;28;20020;-50
2023/03/22 00:46:00;;;;;;;13.50;10.52;;;10.20;99.90;;;;;;5092356;28;20441;-54
2023/03/22 00:48:26;;;;;;;16.00;12.05;;;10.20;99.90;;;;;;5092468;28;20054;-54
2023/03/22 00:50:51;;;;;;;14.50;11.15;;;10.10;99.90;;;;;;5092300;28;20037;-52
2023/03/22 00:53:17;;;;;;;18.15;11.73;;;10.00;99.90;;;;;;5092249;28;20518;-49
2023/03/22 00:55:42;;;;;;;19.33;12.40;;;9.90;99.90;;;;;;5092018;28;20052;-55
2023/03/22 00:58:08;;;;;;;20.17;12.50;;;9.90;99.90;;;;;;5092328;28;20436;-53
2023/03/22 01:00:33;;;;;;;16.90;12.38;;;9.90;99.90;;;;;;5092049;28;20028;-51
2023/03/22 01:03:03;;;;;;;16.92;13.13;;;9.90;99.90;;;;;;5092126;28;20024;-50
2023/03/22 01:05:32;;;;;;;14.90;11.57;;;9.80;99.90;;;;;;5092108;28;20027;-53
2023/03/22 01:08:08;;;;;;;15.07;11.85;;;9.90;99.90;;;;;;5091989;28;20046;-54
2023/03/22 01:10:34;;;;;;;;;;;9.90;99.90;;;;;;5072232;28;20024;-54
2023/03/22 01:13:00;;;;;;;19.52;12.23;;;10.00;99.90;;;;;;5071495;28;20330;-53
2023/03/22 01:15:25;;;;;;;15.38;11.57;;;9.90;99.90;;;;;;5071509;28;20021;-53
2023/03/22 01:17:51;;;;;;;19.40;13.52;;;9.90;99.90;;;;;;5053383;28;20021;-57
2023/03/22 01:20:17;;;;;;;14.82;11.57;;;9.90;99.90;;;;;;5071532;28;20060;-52
2023/03/22 01:22:42;;;;;;;14.73;11.63;;;9.80;99.90;;;;;;5071222;28;20434;-51
2023/03/22 01:25:08;;;;;;;20.20;11.43;;;9.90;99.90;;;;;;5071499;28;20027;-55
2023/03/22 01:27:34;;;;;;;20.23;11.48;;;9.70;99.90;;;;;;5071375;28;20104;-53
2023/03/22 01:29:59;;;;;;;15.20;10.23;;;9.60;99.90;;;;;;5071257;28;20104;-54
2023/03/22 01:32:25;;;;;;;13.27;9.82;;;9.70;99.90;;;;;;5071266;28;20067;-54
2023/03/22 01:34:51;;;;;;;13.90;10.23;;;9.60;99.90;;;;;;5071470;28;20494;-53
2023/03/22 01:37:17;;;;;;;14.88;10.75;;;9.60;99.90;;;;;;5071366;28;20033;-50
2023/03/22 01:39:42;;;;;;;16.10;11.77;;;9.60;99.90;;;;;;5053553;28;20031;-52
2023/03/22 01:42:15;;;;;;;15.13;10.38;;;9.50;99.90;;;;;;5071343;28;20403;-52
2023/03/22 01:45:12;;;;;;;14.80;10.73;;;9.50;99.90;;;;;;5053247;28;20400;-55
2023/03/22 01:47:40;;;;;;;15.77;11.00;;;9.50;99.90;;;;;;5071117;28;20025;-53
2023/03/22 01:50:07;;;;;;;13.30;11.55;;;9.50;99.90;;;;;;5053141;28;20036;-53
2023/03/22 01:52:34;;;;;;;14.40;11.15;;;9.50;99.90;;;;;;5053433;28;20119;-51
2023/03/22 01:55:00;;;;;;;16.48;11.18;;;9.50;99.90;;;;;;5071126;28;20502;-55
2023/03/22 01:57:25;;;;;;;12.65;10.68;;;9.50;99.90;;;;;;5074220;28;20107;-52
2023/03/22 01:59:51;;;;;;;14.93;11.48;;;9.60;99.90;;;;;;5057121;28;20027;-53
2023/03/22 02:02:21;;;;;;;13.43;10.50;;;9.60;99.90;;;;;;5074938;28;20028;-53
2023/03/22 02:04:49;;;;;;;11.77;10.48;;;9.60;99.90;;;;;;5075108;28;20024;-54
2023/03/22 02:07:26;;;;;;;24.58;11.40;;;9.60;99.90;;;;;;5074879;28;20025;-55
2023/03/22 02:09:52;;;;;;;13.68;10.95;;;9.70;99.90;;;;;;5074692;28;20063;-54
2023/03/22 02:12:35;;;;;;;13.07;10.52;;;9.70;99.90;;;;;;5074890;28;20027;-51
2023/03/22 02:15:21;;;;;;;12.98;9.82;;;9.70;99.90;;;;;;5074707;28;20023;-52
2023/03/22 02:18:16;;;;;;;13.07;9.70;;;9.80;99.90;;;;;;5074685;28;20074;-52
2023/03/22 02:21:00;;;;;;;12.88;8.38;;;9.80;99.90;;;;;;5056527;28;20050;-55
2023/03/22 02:24:05;;;;;;;12.95;8.50;;;9.80;99.90;;;;;;5074533;28;20427;-50
2023/03/22 02:27:09;;;;;;;15.43;9.32;;;9.90;99.90;;;;;;5074669;28;20020;-51
2023/03/22 02:29:59;;;;;;;10.13;8.57;;;9.90;99.90;;;;;;5074547;28;20583;-55
2023/03/22 02:32:44;;;;;;;9.45;7.85;;;9.90;99.90;;;;;;5074489;28;20032;-51
2023/03/22 02:35:30;;;;;;;12.85;9.18;;;9.90;99.90;;;;;;5057264;28;20039;-54
2023/03/22 02:38:33;;;;;;;16.42;9.10;;;9.80;99.90;;;;;;5074461;28;20021;-51
2023/03/22 02:41:20;;;;;;;9.85;8.25;;;9.70;99.90;;;;;;5056417;28;20506;-53
2023/03/22 02:44:27;;;;;;;21.45;8.38;;;9.60;99.90;;;;;;5074423;28;20051;-55
2023/03/22 02:47:05;;;;;;;15.90;8.05;;;9.60;99.90;;;;;;4984973;28;20041;-50
2023/03/22 02:49:36;;;;;;;12.07;8.43;;;9.60;99.90;;;;;;5074203;28;20155;-52
2023/03/22 02:52:11;;;;;;;14.52;9.68;;;9.50;99.90;;;;;;5074229;28;20025;-52
2023/03/22 02:54:51;;;;;;;12.57;8.90;;;9.50;99.90;;;;;;5074311;28;20100;-50
2023/03/22 02:57:28;;;;;;;11.63;8.93;;;9.50;99.90;;;;;;5074314;28;20500;-51
2023/03/22 02:59:54;;;;;;;13.43;8.98;;;9.50;99.90;;;;;;5073954;28;20028;-53
2023/03/22 03:02:21;;;;;;;9.93;8.60;;;9.50;99.90;;;;;;5073931;28;20025;-52
2023/03/22 03:04:49;;;;;;;9.23;7.75;;;9.50;99.90;;;;;;5073964;28;20027;-50
2023/03/22 03:07:20;;;;;;;10.43;8.60;;;9.60;99.90;;;;;;5073384;28;20396;-49
2023/03/22 03:09:46;;;;;;;10.10;8.50;;;10.10;99.90;;;;;;5073832;28;20052;-51
2023/03/22 03:12:22;;;;;;;11.02;8.05;;;9.60;99.90;;;;;;5073732;28;20060;-50
2023/03/22 03:14:47;;;;;;;12.30;8.75;;;9.60;99.90;;;;;;5073747;28;20403;-50
2023/03/22 03:17:23;;;;;;;10.90;7.82;;;9.70;99.90;;;;;;5073725;28;20036;-52
2023/03/22 03:20:07;;;;;;;11.80;8.50;;;9.70;99.90;;;;;;5073503;28;20033;-55
2023/03/22 03:23:06;;;;;;;12.27;8.30;;;9.80;99.90;;;;;;5073668;28;20093;-54
2023/03/22 03:26:04;;;;;;;10.55;8.00;;;9.80;99.90;;;;;;5073674;28;20158;-54
2023/03/22 03:29:02;;;;;;;8.45;7.57;;;9.80;99.90;;;;;;5068338;28;20119;-55
2023/03/22 03:31:39;;;;;;;10.25;7.55;;;9.80;99.90;;;;;;5073383;28;20074;-54
2023/03/22 03:34:25;;;;;;;9.52;7.57;;;9.80;99.90;;;;;;5073468;28;20029;-53
2023/03/22 03:37:03;;;;;;;9.70;8.23;;;9.80;99.90;;;;;;5073474;28;20545;-54
2023/03/22 03:39:32;;;;;;;11.48;7.72;;;9.90;99.90;;;;;;5073450;28;20028;-51
2023/03/22 03:42:01;;;;;;;16.17;7.85;;;9.80;99.90;;;;;;5073057;28;20419;-53
2023/03/22 03:44:29;;;;;;;13.18;7.68;;;9.90;99.90;;;;;;5055286;28;20037;-52
2023/03/22 03:46:56;;;;;;;15.73;8.23;;;9.90;99.90;;;;;;5072970;28;20032;-53
2023/03/22 03:49:22;;;;;;;9.82;7.30;;;9.90;99.90;;;;;;5072990;28;20025;-55
2023/03/22 03:51:53;;;;;;;13.15;8.60;;;9.90;99.90;;;;;;5055047;28;20047;-53
2023/03/22 03:54:19;;;;;;;10.20;7.80;;;9.90;99.90;;;;;;5072978;28;20051;-53
2023/03/22 03:56:46;;;;;;;11.07;8.13;;;9.80;99.90;;;;;;5072828;28;20078;-55
2023/03/22 03:59:14;;;;;;;9.82;6.95;;;9.80;99.90;;;;;;5072837;28;20052;-54
2023/03/22 04:01:48;;;;;;;12.90;7.93;;;9.80;99.90;;;;;;5072510;28;20063;-53
2023/03/22 04:04:25;;;;;;;11.50;7.75;;;9.80;99.90;;;;;;5072910;28;20037;-50
2023/03/22 04:06:55;;;;;;;10.32;7.03;;;9.80;99.90;;;;;;5072517;28;20025;-52
2023/03/22 04:09:26;;;;;;;8.48;6.90;;;9.90;99.90;;;;;;5072690;28;20036;-52
2023/03/22 04:11:51;;;;;;;10.57;7.00;;;9.90;99.90;;;;;;5072549;28;20086;-51
2023/03/22 04:14:17;;;;;;;11.48;7.63;;;9.90;99.90;;;;;;5072647;28;20021;-52
2023/03/22 04:16:43;;;;;;;10.98;7.22;;;10.40;99.90;;;;;;5072361;28;20064;-51
2023/03/22 04:19:08;;;;;;;9.35;7.18;;;10.00;99.90;;;;;;5071754;28;20060;-49
2023/03/22 04:21:34;;;;;;;11.15;7.00;;;10.00;99.90;;;;;;5072049;28;20033;-51
2023/03/22 04:24:00;;;;;;;10.45;6.95;;;9.90;99.90;;;;;;5072422;28;20017;-53
2023/03/22 04:26:25;;;;;;;8.23;6.97;;;9.90;99.90;;;;;;5054885;28;20304;-55
2023/03/22 04:28:51;;;;;;;13.63;7.65;;;9.90;99.90;;;;;;5072723;28;20078;-51
2023/03/22 04:31:17;;;;;;;10.38;6.88;;;9.90;99.90;;;;;;5054639;28;20027;-56
2023/03/22 04:33:45;;;;;;;10.50;7.05;;;10.00;99.90;;;;;;5072242;28;20070;-56
2023/03/22 04:36:16;;;;;;;8.13;7.30;;;9.90;99.90;;;;;;5072195;28;20016;-51
2023/03/22 04:38:42;;;;;;;8.93;6.72;;;10.00;99.90;;;;;;5072049;28;20111;-51
2023/03/22 04:41:08;;;;;;;8.88;7.50;;;10.00;99.90;;;;;;5053786;28;20033;-52
2023/03/22 04:43:34;;;;;;;11.88;6.32;;;10.00;99.90;;;;;;5071863;28;20048;-53
2023/03/22 04:46:00;;;;;;;9.00;6.88;;;10.00;99.90;;;;;;5072049;28;20063;-50
2023/03/22 04:48:26;;;;;;;10.35;7.13;;;10.00;99.90;;;;;;5071634;28;20036;-52
2023/03/22 04:50:52;;;;;;;9.52;6.55;;;10.00;99.90;;;;;;5072053;28;20377;-50
2023/03/22 04:53:18;;;;;;;9.77;7.43;;;10.00;99.90;;;;;;5071861;28;20024;-54
2023/03/22 04:55:44;;;;;;;8.30;6.55;;;10.00;99.90;;;;;;5071702;28;20062;-53
2023/03/22 04:58:10;;;;;;;7.47;6.13;;;10.00;99.90;;;;;;5071717;28;20511;-54
2023/03/22 05:00:36;;;;;;;10.27;7.15;;;10.00;99.90;;;;;;5071579;28;20036;-53
2023/03/22 05:03:02;;;;;;;12.85;6.88;;;10.00;99.90;;;;;;5071779;28;20526;-56
2023/03/22 05:05:28;;;;;;;9.27;7.28;;;10.00;99.90;;;;;;5071551;28;20104;-54
2023/03/22 05:07:55;;;;;;;7.80;6.88;;;9.90;99.90;;;;;;5071373;28;20107;-55
2023/03/22 05:10:20;;;;;;;9.80;7.90;;;9.90;99.90;;;;;;5071559;28;20020;-55
2023/03/22 05:12:46;;;;;;;13.75;7.03;;;9.80;99.90;;;;;;5053431;28;20120;-56
2023/03/22 05:15:12;;;;;;;13.93;7.60;;;9.80;99.90;;;;;;5071561;28;20017;-51
2023/03/22 05:17:37;;;;;;;10.48;7.28;;;9.70;99.90;;;;;;5071538;28;20024;-51
2023/03/22 05:20:08;;;;;;;9.52;6.88;;;9.70;99.90;;;;;;5071479;28;20024;-52
2023/03/22 05:22:36;;;;;;;10.20;8.20;;;9.70;99.90;;;;;;5071369;28;20030;-49
2023/03/22 05:25:03;;;;;;;11.07;7.40;;;9.60;99.90;;;;;;5071563;28;20028;-51
2023/03/22 05:27:33;;;;;;;10.60;8.57;;;9.60;99.90;;;;;;5071299;28;20503;-53
2023/03/22 05:30:00;;;;;;;10.15;7.85;;;9.60;99.90;;;;;;5072703;28;20035;-53
2023/03/22 05:32:28;;;;;;;8.93;7.30;;;9.60;99.90;;;;;;5077954;28;20024;-51
2023/03/22 05:34:54;;;;;;;11.25;7.50;;;9.60;99.90;;;;;;5077856;28;20016;-52
2023/03/22 05:37:21;;;;;;;10.48;7.10;;;9.60;99.90;;;;;;5077833;28;20021;-52
2023/03/22 05:39:46;;;;;;;11.13;7.70;;;9.50;99.90;;;;;;5077714;28;20434;-54
2023/03/22 05:42:12;;;;;;;10.60;6.47;;;9.40;99.90;;;;;;5077607;28;20085;-50
2023/03/22 05:44:37;;;;;;;7.68;6.78;;;9.50;99.90;;;;;;5078249;28;20024;-54
2023/03/22 05:47:05;;;;;;;10.63;7.07;;;9.50;99.90;;;;;;5077760;28;20400;-51
2023/03/22 05:49:31;;;;;;;7.28;6.18;;;9.50;99.90;;;;;;5077726;28;20017;-55
2023/03/22 05:51:56;;;;;;;7.63;6.75;;;9.50;99.90;;;;;;5077893;28;20031;-53
2023/03/22 05:54:22;;;;;;;9.15;6.68;;;9.40;99.90;;;;;;5077958;28;20099;-54
2023/03/22 05:56:47;;;;;;;12.32;6.68;;;9.40;99.90;;;;;;5077708;28;20035;-55
2023/03/22 05:59:13;;;;;;;8.90;6.85;;;9.30;99.90;;;;;;5077740;28;20488;-51
2023/03/22 06:01:38;;;;;;;12.35;6.18;;;9.40;99.90;;;;;;5059581;28;20450;-50
2023/03/22 06:04:04;;;;;;;16.75;7.55;;;9.30;99.90;;;;;;5077682;28;20025;-54
2023/03/22 06:06:29;;;;;;;11.60;6.55;;;9.30;99.90;;;;;;5059767;28;20028;-50
2023/03/22 06:08:55;;;;;;;10.98;6.22;;;9.30;99.90;;;;;;5077694;28;20035;-53
2023/03/22 06:11:21;;;;;;;9.68;6.25;;;9.50;99.90;;;;;;5077442;28;20025;-58
2023/03/22 06:13:47;;;;;;;6.88;6.15;;;9.70;99.90;;;;;;5078664;28;20430;-54
2023/03/22 06:16:12;;;;;;;15.70;7.53;;;9.90;99.90;;;;;;5077715;28;20028;-50
2023/03/22 06:18:38;;;;;;;8.95;6.60;;;10.10;99.90;;;;;;5077599;28;20060;-54
2023/03/22 06:21:04;;;;;;;6.95;6.13;;;10.50;99.90;;;;;;5059471;28;20511;-51
2023/03/22 06:23:29;;;;;;;7.45;5.63;;;10.80;99.90;;;;;;5088207;22;20073;-49
2023/03/22 06:25:55;;;;;;;8.32;5.50;;;11.20;99.90;;;;;;5037704;28;20029;-50
2023/03/22 06:28:20;;;;;;;6.78;5.63;;;11.70;99.90;;;;;;5037140;28;20025;-45
2023/03/22 06:30:46;;;;;;;7.07;5.53;;;12.10;99.90;;;;;;5037341;28;20461;-45
2023/03/22 06:33:12;;;;;;;8.30;5.63;;;12.60;99.90;;;;;;5037566;28;20439;-48
2023/03/22 06:35:37;;;;;;;5.90;5.20;;;13.00;99.90;;;;;;5037391;28;20025;-48
2023/03/22 06:38:03;;;;;;;5.65;4.97;;;13.40;99.90;;;;;;5037180;28;20420;-48
2023/03/22 06:40:28;;;;;;;7.00;5.70;;;13.60;99.90;;;;;;5037196;28;20021;-47
2023/03/22 06:42:54;;;;;;;5.88;5.05;;;14.00;99.90;;;;;;5033935;28;20025;-48
2023/03/22 06:45:20;;;;;;;7.28;5.57;;;14.60;99.90;;;;;;5034368;28;20401;-46
2023/03/22 06:47:46;;;;;;;6.43;4.90;;;15.10;99.90;;;;;;5034204;28;20024;-47
2023/03/22 06:50:13;;;;;;;7.47;5.22;;;14.90;99.90;;;;;;5033895;28;20025;-48
2023/03/22 06:52:39;;;;;;;6.85;5.03;;;14.50;99.90;;;;;;5034183;28;20104;-47
2023/03/22 06:55:04;;;;;;;6.07;5.18;;;13.90;99.90;;;;;;5034417;28;20496;-46
2023/03/22 06:57:30;;;;;;;10.70;6.22;;;13.30;99.90;;;;;;5034034;28;20026;-50
2023/03/22 06:59:55;;;;;;;7.45;5.43;;;12.70;99.90;;;;;;5016356;28;20025;-48
2023/03/22 07:02:21;;;;;;;9.30;5.97;;;12.30;99.90;;;;;;5034123;28;20044;-48
2023/03/22 07:04:46;;;;;;;9.82;5.68;;;12.00;99.90;;;;;;5033918;28;20083;-47
2023/03/22 07:07:12;;;;;;;9.05;6.00;;;11.90;99.90;;;;;;5033924;28;20429;-46
2023/03/22 07:09:38;;;;;;;11.18;6.40;;;11.80;99.90;;;;;;5033776;28;20021;-47
2023/03/22 07:12:05;;;;;;;6.47;5.10;;;12.00;99.90;;;;;;5016082;28;20029;-48
2023/03/22 07:14:31;;;;;;;9.68;5.93;;;12.60;99.90;;;;;;5033537;28;20025;-51
2023/03/22 07:16:57;;;;;;;15.70;5.43;;;13.30;99.90;;;;;;5033749;28;20021;-48
2023/03/22 07:19:23;;;;;;;6.72;4.40;;;14.10;99.90;;;;;;5033744;28;20076;-48
2023/03/22 07:21:48;;;;;;;7.03;5.40;;;14.60;99.90;;;;;;5033873;28;20033;-48
2023/03/22 07:24:14;;;;;;;7.40;4.72;;;14.80;99.90;;;;;;5033216;28;20489;-50
2023/03/22 07:26:40;;;;;;;7.63;4.45;;;15.00;99.90;;;;;;5033474;28;20022;-48
2023/03/22 07:29:05;;;;;;;6.03;5.07;;;14.70;99.90;;;;;;5033544;28;20025;-48
2023/03/22 07:31:35;;;;;;;7.78;4.68;;;14.40;99.90;;;;;;5033497;28;20087;-49
2023/03/22 07:34:02;;;;;;;7.45;5.03;;;13.70;99.90;;;;;;5033427;28;20074;-47
2023/03/22 07:36:28;;;;;;;9.05;4.88;;;13.40;99.90;;;;;;5033310;28;20511;-47
2023/03/22 07:38:53;;;;;;;7.30;5.18;;;13.30;99.90;;;;;;5033349;28;20176;-50
2023/03/22 07:41:19;;;;;;;7.88;5.20;;;13.30;99.90;;;;;;5033236;28;20029;-48
2023/03/22 07:43:45;;;;;;;7.35;4.60;;;13.30;99.90;;;;;;5033115;28;20036;-48
2023/03/22 07:46:11;;;;;;;10.35;4.40;;;13.60;99.90;;;;;;5033349;28;20022;-47
2023/03/22 07:48:37;;;;;;;8.27;4.70;;;13.70;99.90;;;;;;5033131;28;20121;-47
2023/03/22 07:51:04;;;;;;;5.47;4.40;;;13.70;99.90;;;;;;5032963;28;20075;-47
2023/03/22 07:53:29;;;;;;;7.65;5.25;;;13.70;99.90;;;;;;5031809;28;20026;-48
2023/03/22 07:55:55;;;;;;;8.50;4.88;;;14.20;99.90;;;;;;5032947;28;20020;-48
2023/03/22 07:58:20;;;;;;;7.43;4.10;;;14.50;99.90;;;;;;5032925;28;20116;-49
2023/03/22 08:00:48;;;;;;;8.25;4.63;;;14.40;99.90;;;;;;5032738;28;20025;-49
2023/03/22 08:03:14;;;;;;;11.45;5.50;;;14.10;99.90;;;;;;5032167;28;20041;-49
2023/03/22 08:05:40;;;;;;;5.13;4.63;;;13.90;99.90;;;;;;5031472;28;20022;-48
2023/03/22 08:08:06;;;;;;;7.72;5.38;;;13.80;99.90;;;;;;5013787;28;20099;-47
2023/03/22 08:10:32;;;;;;;12.10;5.22;;;13.70;99.90;;;;;;5032515;28;20025;-47
2023/03/22 08:12:58;;;;;;;11.13;5.38;;;13.60;99.90;;;;;;5032294;28;20445;-48
2023/03/22 08:15:24;;;;;;;9.02;5.88;;;13.50;99.90;;;;;;5031975;28;20017;-49
2023/03/22 08:17:49;;;;;;;12.35;5.53;;;13.40;99.90;;;;;;5032090;28;20393;-48
2023/03/22 08:20:17;;;;;;;8.73;5.03;;;13.50;99.90;;;;;;5032239;28;20037;-47
2023/03/22 08:22:43;;;;;;;7.22;4.18;;;13.60;99.90;;;;;;5032058;28;20025;-49
2023/03/22 08:25:09;;;;;;;5.90;4.35;;;13.70;99.90;;;;;;5031427;28;20033;-47
2023/03/22 08:27:34;;;;;;;7.78;3.80;;;13.70;99.90;;;;;;5032034;28;20405;-48
2023/03/22 08:30:01;;;;;;;6.80;3.28;;;13.90;99.90;;;;;;5031950;28;20128;-50
2023/03/22 08:32:26;;;;;;;3.78;3.35;;;13.80;99.90;;;;;;5031881;28;20032;-48
2023/03/22 08:34:52;;;;;;;4.82;3.35;;;13.80;99.90;;;;;;5032297;28;20033;-49
2023/03/22 08:37:21;;;;;;;8.75;3.92;;;13.50;99.90;;;;;;5032008;28;20044;-48
2023/03/22 08:39:46;;;;;;;7.95;3.92;;;13.50;99.90;;;;;;5031965;28;20108;-52
2023/03/22 08:42:12;;;;;;;5.90;3.83;;;13.40;99.90;;;;;;5032213;28;20497;-49
2023/03/22 08:44:37;;;;;;;9.02;3.80;;;13.30;99.90;;;;;;5031510;28;20040;-50
2023/03/22 08:47:03;;;;;;;8.35;5.00;;;13.30;99.90;;;;;;5031970;28;20032;-47
2023/03/22 08:49:30;;;;;;;9.25;4.22;;;13.50;99.90;;;;;;5029756;28;20033;-47
2023/03/22 08:51:56;;;;;;;7.50;3.63;;;13.60;99.90;;;;;;5029900;28;20032;-49
2023/03/22 08:54:22;;;;;;;6.00;3.28;;;13.90;99.90;;;;;;5031700;28;20477;-50
2023/03/22 08:56:48;;;;;;;6.35;3.15;;;13.80;99.90;;;;;;5033104;28;20025;-47
2023/03/22 08:59:13;;;;;;;6.75;3.33;;;13.90;99.90;;;;;;5031930;28;20033;-49
2023/03/22 09:01:39;;;;;;;4.47;3.63;;;14.00;99.90;;;;;;5031906;28;20091;-49
2023/03/22 09:04:04;;;;;;;6.90;3.65;;;14.00;99.90;;;;;;5030721;28;20025;-47
2023/03/22 09:06:30;;;;;;;7.72;3.30;;;14.20;99.90;;;;;;5031501;28;20018;-48
2023/03/22 09:08:55;;;;;;;4.50;3.53;;;14.50;99.90;;;;;;5031847;28;20022;-48
2023/03/22 09:11:22;;;;;;;5.97;3.25;;;14.70;99.90;;;;;;5031393;28;20032;-49
2023/03/22 09:13:48;;;;;;;4.82;3.65;;;14.70;99.90;;;;;;5031375;28;20053;-49
2023/03/22 09:16:15;;;;;;;4.75;3.35;;;14.50;99.90;;;;;;5031507;28;20080;-50
2023/03/22 09:18:41;;;;;;;6.38;2.92;;;14.40;99.90;;;;;;5031467;28;20484;-50
2023/03/22 09:21:07;;;;;;;7.22;2.95;;;14.30;99.90;;;;;;5031241;28;20079;-50
2023/03/22 09:23:34;;;;;;;11.90;2.85;;;14.40;99.90;;;;;;5031444;28;20042;-49
2023/03/22 09:26:02;;;;;;;4.05;2.80;;;14.30;99.90;;;;;;5032052;28;20083;-49
2023/03/22 09:28:28;;;;;;;5.05;2.30;;;14.40;99.90;;;;;;5031896;28;20029;-47
2023/03/22 09:30:58;;;;;;;5.93;2.17;;;14.40;99.90;;;;;;5031356;28;20141;-52
2023/03/22 09:33:23;;;;;;;2.85;2.05;;;14.50;99.90;;;;;;5031311;28;20028;-49
2023/03/22 09:35:49;;;;;;;2.03;1.50;;;14.70;99.90;;;;;;5031334;28;20104;-48
2023/03/22 09:38:15;;;;;;;2.70;1.45;;;14.70;99.90;;;;;;5031530;28;20439;-46
2023/03/22 09:40:59;;;;;;;4.85;1.17;;;14.70;99.90;;;;;;5031214;28;20025;-52
2023/03/22 09:43:29;;;;;;;2.03;1.30;;;14.60;99.90;;;;;;5031248;28;20109;-49
2023/03/22 09:45:54;;;;;;;2.75;1.33;;;14.60;99.90;;;;;;5031202;28;20029;-49
2023/03/22 09:48:27;;;;;;;2.95;1.33;;;14.50;99.90;;;;;;5031335;28;20400;-49
2023/03/22 09:50:54;;;;;;;3.20;1.40;;;14.50;99.90;;;;;;5031336;28;20025;-50
2023/03/22 09:53:23;;;;;;;3.30;1.20;;;14.50;99.90;;;;;;5031717;28;20026;-50
2023/03/22 09:55:48;;;;;;;2.22;1.33;;;14.60;99.90;;;;;;5031710;28;20033;-51
2023/03/22 09:58:42;;;;;;;2.88;1.25;;;14.70;99.90;;;;;;5031784;28;20385;-47
2023/03/22 10:01:26;;;;;;;2.03;1.17;;;14.60;99.90;;;;;;5031619;28;20022;-49
2023/03/22 10:04:17;;;;;;;4.22;1.63;;;14.60;99.90;;;;;;5024346;28;20524;-47
2023/03/22 10:06:48;;;;;;;12.50;1.27;;;14.80;99.90;;;;;;5027998;28;20034;-47
2023/03/22 10:09:33;;;;;;;0.90;0.90;;;14.90;99.90;;;;;;5025311;28;20026;-48
2023/03/22 10:12:27;;;;;;;2.22;1.67;;;15.30;99.90;;;;;;5029357;28;20021;-46
2023/03/22 10:15:04;;;;;;;1.67;0.98;;;15.70;99.90;;;;;;5028295;28;20033;-49
2023/03/22 10:17:30;;;;;;;1.42;0.95;;;15.90;99.90;;;;;;5028616;28;20103;-46
2023/03/22 10:20:07;;;;;;;3.80;1.23;;;15.80;99.90;;;;;;5015561;28;20055;-47
2023/03/22 10:22:36;;;;;;;1.83;1.10;;;15.90;99.90;;;;;;5031021;28;20042;-49
2023/03/22 10:25:05;;;;;;;4.70;1.13;;;15.90;99.90;;;;;;5030872;28;20037;-48
2023/03/22 10:27:31;;;;;;;3.20;1.05;;;16.00;99.90;;;;;;5032938;28;20390;-46
2023/03/22 10:30:00;;;;;;;3.70;1.88;;;16.20;99.90;;;;;;5033405;28;20030;-46
2023/03/22 10:32:45;;;;;;;4.32;0.90;;;16.40;99.90;;;;;;5021998;28;20029;-46
2023/03/22 10:35:14;;;;;;;1.85;1.13;;;16.30;99.90;;;;;;5029195;28;20045;-47
2023/03/22 10:37:43;;;;;;;3.20;1.40;;;16.40;99.90;;;;;;5034621;28;20108;-44
2023/03/22 10:40:17;;;;;;;3.47;1.73;;;16.40;99.90;;;;;;5035129;28;20377;-47
2023/03/22 10:42:50;;;;;;;1.98;1.15;;;16.60;99.90;;;;;;5031914;28;20036;-45
2023/03/22 10:45:16;;;;;;;1.40;1.00;;;16.70;99.90;;;;;;5030341;28;20040;-47
2023/03/22 10:47:48;;;;;;;2.92;0.95;;;16.60;99.90;;;;;;5032250;28;20026;-49
2023/03/22 10:50:21;;;;;;;1.67;0.73;;;16.50;99.90;;;;;;5032504;28;20033;-48
2023/03/22 10:53:07;;;;;;;1.00;1.00;;;16.30;99.90;;;;;;5032413;28;20033;-49
2023/03/22 10:55:41;;;;;;;2.63;1.00;;;16.40;99.90;;;;;;5028810;28;20021;-47
2023/03/22 10:58:15;;;;;;;1.17;1.08;;;16.40;99.90;;;;;;5031766;28;20202;-47
2023/03/22 11:00:49;;;;;;;1.30;1.10;;;16.60;99.90;;;;;;5028929;28;20036;-48
2023/03/22 11:03:39;;;;;;;3.17;1.25;;;16.70;99.90;;;;;;5031487;28;20025;-47
2023/03/22 11:06:29;;;;;;;1.30;1.20;;;16.80;99.90;;;;;;5029965;28;20385;-46
2023/03/22 11:09:07;;;;;;;1.95;0.90;;;16.90;99.90;;;;;;5031737;28;20535;-46
2023/03/22 11:11:52;;;;;;;1.08;0.70;;;16.80;99.90;;;;;;5014049;28;20405;-47
2023/03/22 11:14:23;;;;;;;2.47;0.88;;;16.90;99.90;;;;;;5027634;28;20026;-49
2023/03/22 11:16:55;;;;;;;1.35;0.95;;;17.00;99.90;;;;;;5010645;28;20029;-46
2023/03/22 11:19:33;;;;;;;1.08;0.95;;;17.00;99.90;;;;;;5031626;28;20025;-55
2023/03/22 11:22:01;;;;;;;1.73;0.95;;;17.10;99.90;;;;;;5031641;28;20390;-48
2023/03/22 11:24:30;;;;;;;12.85;9.00;;;17.20;99.90;;;;;;5032481;28;20040;-52
2023/03/22 11:27:17;;;;;;;2.45;2.00;;;17.20;99.90;;;;;;5029857;28;20095;-55
2023/03/22 11:29:46;;;;;;;2.30;1.85;;;17.20;99.90;;;;;;5031208;28;20025;-57
2023/03/22 11:32:38;;;;;;;0.68;0.68;;;17.10;99.90;;;;;;5031637;28;20021;-55
2023/03/22 11:35:37;;;;;;;0.90;0.75;;;17.30;99.90;;;;;;5025804;28;20049;-55
2023/03/22 11:38:03;;;;;;;1.77;0.95;;;17.40;99.80;;;;;;4988234;28;21006;-58
2023/03/22 11:40:32;;;;;;;0.80;0.80;;;17.30;99.40;;;;;;5031336;28;20040;-53
2023/03/22 11:43:18;;;;;;;3.85;1.92;;;17.40;99.90;;;;;;5012056;28;20099;-54
2023/03/22 11:45:44;;;;;;;1.52;0.85;;;17.40;98.80;;;;;;5026214;28;20063;-56
2023/03/22 11:48:20;;;;;;;2.20;1.08;;;17.30;98.70;;;;;;5028946;28;20600;-52
2023/03/22 11:50:46;;;;;;;1.80;1.52;;;17.10;98.80;;;;;;5027541;28;20021;-54
2023/03/22 11:53:16;;;;;;;1.92;1.48;;;17.20;99.00;;;;;;5030387;28;20037;-51
2023/03/22 11:55:43;;;;;;;0.82;0.70;;;17.20;99.40;;;;;;5025024;28;20087;-55
2023/03/22 11:58:28;;;;;;;1.83;0.90;;;17.20;98.60;;;;;;5031650;28;20025;-57
2023/03/22 12:00:58;;;;;;;10.50;1.10;;;17.30;99.00;;;;;;5024790;28;20034;-52
2023/03/22 12:03:29;;;;;;;1.63;1.10;;;17.40;99.90;;;;;;5030028;28;20033;-51
2023/03/22 12:05:55;;;;;;;1.23;1.05;;;17.40;99.90;;;;;;5030619;28;20477;-54
2023/03/22 12:08:45;;;;;;;2.55;0.70;;;17.30;99.90;;;;;;5029443;28;20267;-53
2023/03/22 12:11:16;;;;;;;1.55;1.13;;;17.40;99.20;;;;;;5009996;28;20454;-54
2023/03/22 12:13:53;;;;;;;2.58;1.00;;;17.40;99.80;;;;;;5028747;28;20030;-55
2023/03/22 12:16:27;;;;;;;1.20;1.10;;;17.40;99.90;;;;;;5030337;28;20025;-57
2023/03/22 12:18:56;;;;;;;3.03;1.05;;;17.40;98.70;;;;;;5025970;28;20018;-58
2023/03/22 12:21:22;;;;;;;3.00;1.10;;;17.40;98.40;;;;;;5029272;28;20112;-55
2023/03/22 12:23:47;;;;;;;1.80;0.90;;;17.40;98.10;;;;;;5051732;22;20188;-60
2023/03/22 12:26:20;;;;;;;1.77;0.95;;;17.30;97.80;;;;;;5010634;28;20029;-60
2023/03/22 12:28:55;;;;;;;1.10;0.90;;;17.30;97.50;;;;;;5024382;28;20035;-51
2023/03/22 12:31:39;;;;;;;2.03;1.20;;;17.20;97.70;;;;;;5031788;28;20026;-53
2023/03/22 12:34:17;;;;;;;2.03;1.05;;;17.20;98.50;;;;;;5031174;28;20489;-56
2023/03/22 12:36:49;;;;;;;1.08;0.98;;;17.20;98.00;;;;;;5031226;28;20484;-52
2023/03/22 12:39:34;;;;;;;1.90;1.00;;;17.20;98.40;;;;;;5032199;28;20378;-51
2023/03/22 12:42:20;;;;;;;0.70;0.70;;;17.20;98.60;;;;;;5032453;28;20032;-50
2023/03/22 12:44:49;;;;;;;3.25;1.00;;;17.30;98.80;;;;;;5032074;28;20083;-50
2023/03/22 12:47:24;;;;;;;2.20;0.93;;;17.30;99.10;;;;;;5032033;28;20025;-50
2023/03/22 12:50:11;;;;;;;1.48;1.05;;;17.40;99.70;;;;;;5032018;28;20049;-53
2023/03/22 12:52:55;;;;;;;0.80;0.80;;;17.60;99.40;;;;;;5032320;28;20102;-51
2023/03/22 12:55:23;;;;;;;1.08;0.88;;;17.70;98.60;;;;;;5031824;28;20021;-50
2023/03/22 12:57:51;;;;;;;1.40;0.80;;;17.80;97.60;;;;;;5012155;28;20474;-54
2023/03/22 13:00:18;;;;;;;2.72;0.60;;;17.80;97.60;;;;;;5029161;28;20026;-51
2023/03/22 13:02:56;;;;;;;2.53;1.17;;;17.80;97.30;;;;;;5031850;28;20091;-51